Time;durP1;ratioP1;P1;durP2;ratioP2;P2;SDS_P1;SDS_P2;PMS_P1;PMS_P2;Temp;Humidity;BMP_temperature;BMP_pressure;BME280_temperature;BME280_humidity;BME280_pressure;Samples;Min_cycle;Max_cycle;Signal;HPM_P1;HPM_P2
2022/01/06 00:00:05;;;;;;;405.27;133.87;;;;;;;5.31;85.30;98931.97;342934;28;1243;-72
2022/01/06 00:00:16;;;;;;;406.77;134.75;;;;;;;5.31;84.95;98943.19;342768;28;1874;-71
2022/01/06 00:00:30;;;;;;;407.77;133.27;;;;;;;5.31;84.92;98937.16;344358;28;1298;-71
2022/01/06 00:00:40;;;;;;;407.33;132.07;;;;;;;5.29;85.29;98937.19;341731;28;877;-72
2022/01/06 00:00:51;;;;;;;406.08;132.88;;;;;;;5.31;85.07;98938.00;341286;28;1866;-71
2022/01/06 00:01:03;;;;;;;407.40;134.33;;;;;;;5.32;84.98;98937.09;339920;29;1414;-71
2022/01/06 00:01:13;;;;;;;406.65;133.68;;;;;;;5.31;85.21;98930.22;342334;28;1482;-71
2022/01/06 00:01:24;;;;;;;403.60;131.83;;;;;;;5.31;85.02;98937.16;340065;28;1194;-71
2022/01/06 00:01:34;;;;;;;398.65;130.20;;;;;;;5.31;85.13;98938.00;339285;29;898;-73
2022/01/06 00:01:45;;;;;;;397.23;130.27;;;;;;;5.32;85.02;98936.25;341360;28;1218;-73
2022/01/06 00:01:55;;;;;;;398.33;132.43;;;;;;;5.33;84.97;98940.56;340121;29;941;-73
2022/01/06 00:02:05;;;;;;;402.50;133.73;;;;;;;5.31;84.93;98939.75;342559;28;1219;-73
2022/01/06 00:02:16;;;;;;;402.47;133.03;;;;;;;5.32;85.06;98941.44;341595;28;1194;-73
2022/01/06 00:02:26;;;;;;;403.10;131.80;;;;;;;5.33;85.21;98937.97;341478;28;1945;-73
2022/01/06 00:02:37;;;;;;;399.50;129.07;;;;;;;5.33;84.69;98935.38;342747;28;1174;-73
2022/01/06 00:02:47;;;;;;;399.52;128.13;;;;;;;5.33;85.17;98935.38;343429;28;1290;-72
2022/01/06 00:02:57;;;;;;;399.40;127.27;;;;;;;5.32;84.85;98941.44;341905;28;877;-71
2022/01/06 00:03:08;;;;;;;401.88;130.02;;;;;;;5.35;84.92;98944.81;342581;28;1391;-72
2022/01/06 00:03:18;;;;;;;404.23;131.70;;;;;;;5.34;84.87;98937.91;342853;28;943;-73
2022/01/06 00:03:31;;;;;;;403.52;130.52;;;;;;;5.35;84.59;98943.94;341716;28;885;-72
2022/01/06 00:03:41;;;;;;;403.10;129.00;;;;;;;5.36;84.67;98945.66;339007;29;863;-73
2022/01/06 00:03:54;;;;;;;403.70;129.32;;;;;;;5.37;84.92;98952.53;342726;28;902;-73
2022/01/06 00:04:04;;;;;;;405.95;131.00;;;;;;;5.35;84.71;98946.53;340125;29;908;-73
2022/01/06 00:04:15;;;;;;;403.93;131.70;;;;;;;5.36;84.82;98948.25;341180;28;1306;-73
2022/01/06 00:04:25;;;;;;;403.17;132.88;;;;;;;5.37;84.45;98949.09;340142;29;881;-73
2022/01/06 00:04:36;;;;;;;405.90;132.40;;;;;;;5.37;84.69;98952.53;340170;29;978;-73
2022/01/06 00:04:46;;;;;;;405.13;131.00;;;;;;;5.35;84.39;98955.19;342960;28;924;-73
2022/01/06 00:04:56;;;;;;;402.27;128.63;;;;;;;5.34;84.50;98952.63;341586;28;791;-72
2022/01/06 00:05:07;;;;;;;400.80;128.68;;;;;;;5.33;84.54;98959.56;341550;28;840;-72
2022/01/06 00:05:17;;;;;;;403.43;131.10;;;;;;;5.33;84.85;98956.13;338787;28;1349;-71
2022/01/06 00:05:28;;;;;;;405.73;133.82;;;;;;;5.32;85.05;98954.41;341368;28;1339;-71
2022/01/06 00:05:38;;;;;;;404.90;135.40;;;;;;;5.32;84.90;98965.66;344234;28;835;-71
2022/01/06 00:05:49;;;;;;;404.02;135.82;;;;;;;5.29;84.98;98952.75;343731;28;1869;-72
2022/01/06 00:06:03;;;;;;;403.17;133.77;;;;;;;5.29;84.66;98957.97;341377;28;826;-72
2022/01/06 00:06:14;;;;;;;403.20;133.15;;;;;;;5.30;84.56;98964.00;337545;29;960;-71
2022/01/06 00:06:25;;;;;;;402.50;133.20;;;;;;;5.30;84.63;98961.41;337202;29;1197;-72
2022/01/06 00:06:39;;;;;;;400.52;133.52;;;;;;;5.28;84.80;98964.03;336441;29;968;-73
2022/01/06 00:06:49;;;;;;;402.48;132.93;;;;;;;5.28;84.38;98964.03;340100;29;1254;-72
2022/01/06 00:07:00;;;;;;;403.67;132.43;;;;;;;5.29;84.65;98962.28;341335;28;1454;-72
2022/01/06 00:07:11;;;;;;;403.98;130.38;;;;;;;5.29;84.69;98965.75;340047;29;1349;-72
2022/01/06 00:07:21;;;;;;;402.38;129.70;;;;;;;5.29;84.65;98964.88;341484;28;817;-72
2022/01/06 00:07:32;;;;;;;400.37;128.70;;;;;;;5.30;84.36;98961.41;341160;28;1330;-72
2022/01/06 00:07:42;;;;;;;400.45;127.60;;;;;;;5.29;84.23;98964.88;340302;29;1265;-72
2022/01/06 00:07:53;;;;;;;402.67;128.40;;;;;;;5.29;84.58;98970.06;341381;28;1314;-73
2022/01/06 00:08:03;;;;;;;398.05;127.30;;;;;;;5.30;84.29;98967.44;338974;29;1802;-72
2022/01/06 00:08:14;;;;;;;397.38;128.18;;;;;;;5.30;84.46;98967.44;340254;29;1232;-72
2022/01/06 00:08:24;;;;;;;394.53;126.77;;;;;;;5.31;84.24;98970.88;340013;29;1222;-72
2022/01/06 00:08:36;;;;;;;397.63;125.82;;;;;;;5.33;84.08;98969.09;342660;28;1821;-72
2022/01/06 00:08:46;;;;;;;400.65;128.35;;;;;;;5.32;84.33;98964.78;340117;29;958;-72
2022/01/06 00:08:59;;;;;;;404.00;131.33;;;;;;;5.30;83.76;98966.59;341455;28;1357;-72
2022/01/06 00:09:11;;;;;;;407.55;134.75;;;;;;;5.31;84.42;98963.94;339868;29;2063;-72
2022/01/06 00:09:21;;;;;;;405.33;132.85;;;;;;;5.31;84.45;98963.09;340249;29;941;-72
2022/01/06 00:09:32;;;;;;;404.23;131.43;;;;;;;5.32;84.43;98969.97;338758;29;1173;-72
2022/01/06 00:09:42;;;;;;;401.60;130.93;;;;;;;5.30;84.36;98961.41;341604;28;809;-72
2022/01/06 00:09:53;;;;;;;402.67;131.43;;;;;;;5.28;84.33;98965.78;341129;28;2326;-72
2022/01/06 00:10:06;;;;;;;403.60;134.30;;;;;;;5.24;84.31;98966.78;338717;29;856;-72
2022/01/06 00:10:16;;;;;;;405.40;134.65;;;;;;;5.28;84.32;98965.78;341432;28;850;-72
2022/01/06 00:10:28;;;;;;;407.13;133.90;;;;;;;5.27;84.48;98961.50;339858;29;1281;-72
2022/01/06 00:10:39;;;;;;;405.08;130.52;;;;;;;5.29;84.07;98970.06;341159;28;1317;-72
2022/01/06 00:10:50;;;;;;;404.13;129.53;;;;;;;5.30;84.05;98971.78;341482;28;1351;-72
2022/01/06 00:11:01;;;;;;;405.02;128.75;;;;;;;5.31;83.92;98974.31;339704;28;1578;-72
2022/01/06 00:11:13;;;;;;;405.20;131.65;;;;;;;5.29;84.02;98970.06;337487;29;886;-72
2022/01/06 00:11:24;;;;;;;405.42;132.88;;;;;;;5.27;84.08;98967.53;337234;29;947;-72
2022/01/06 00:11:35;;;;;;;404.10;134.38;;;;;;;5.27;83.77;98974.47;336323;29;1311;-72
2022/01/06 00:11:45;;;;;;;402.42;133.65;;;;;;;5.27;84.21;98977.06;341462;28;830;-73
2022/01/06 00:11:56;;;;;;;402.97;134.23;;;;;;;5.26;84.08;98971.00;341355;28;1355;-73
2022/01/06 00:12:10;;;;;;;404.95;134.60;;;;;;;5.24;84.21;98975.41;341442;28;956;-73
2022/01/06 00:12:26;;;;;;;404.08;133.98;;;;;;;5.27;83.85;98977.06;338827;29;991;-73
2022/01/06 00:12:45;;;;;;;402.27;132.48;;;;;;;5.26;83.80;98975.34;338664;29;1055;-73
2022/01/06 00:13:13;;;;;;;404.67;135.20;;;;;;;5.26;84.11;98977.94;342755;28;786;-73
2022/01/06 00:13:27;;;;;;;408.98;137.18;;;;;;;5.22;84.15;98972.00;342737;28;865;-73
2022/01/06 00:14:00;;;;;;;407.35;135.90;;;;;;;5.20;84.15;98967.78;337396;29;1431;-73
2022/01/06 00:14:55;;;;;;;399.35;132.60;;;;;;;5.17;84.08;98975.66;341420;28;830;-73
2022/01/06 00:16:41;;;;;;;403.25;132.75;;;;;;;5.13;84.00;98980.06;335693;29;1326;-72
2022/01/06 00:17:03;;;;;;;403.35;131.43;;;;;;;5.15;84.10;98982.63;341069;28;913;-72
2022/01/06 00:17:34;;;;;;;401.33;132.17;;;;;;;5.09;84.57;98982.81;337331;29;798;-72
2022/01/06 00:18:13;;;;;;;407.27;131.63;;;;;;;5.08;85.14;98986.28;342403;28;934;-72
2022/01/06 00:23:04;;;;;;;406.73;132.03;;;;;;;5.08;85.17;98994.06;342712;28;1659;-72
2022/01/06 00:23:39;;;;;;;408.73;133.32;;;;;;;5.05;84.75;98983.78;341558;28;1186;-72
2022/01/06 00:23:49;;;;;;;408.00;129.27;;;;;;;5.04;84.99;98984.69;340287;29;921;-72
2022/01/06 00:23:59;;;;;;;407.33;128.80;;;;;;;5.03;84.71;98986.41;340025;28;1389;-72
2022/01/06 00:24:10;;;;;;;403.17;129.00;;;;;;;5.02;84.75;98982.13;339957;29;1653;-72
2022/01/06 00:24:20;;;;;;;404.00;130.13;;;;;;;5.02;84.80;98989.91;341380;28;1313;-72
2022/01/06 00:24:31;;;;;;;402.57;130.70;;;;;;;5.04;85.00;98984.69;341481;28;877;-71
2022/01/06 00:24:41;;;;;;;403.00;130.60;;;;;;;5.04;84.70;98982.09;341401;28;810;-73
2022/01/06 00:24:51;;;;;;;404.10;130.03;;;;;;;5.03;84.73;98977.78;336192;29;867;-73
2022/01/06 00:25:02;;;;;;;405.93;132.27;;;;;;;5.04;84.72;98984.69;338542;29;842;-73
2022/01/06 00:25:12;;;;;;;406.40;135.90;;;;;;;5.03;84.66;98986.41;337325;29;1210;-73
2022/01/06 00:25:23;;;;;;;407.57;138.23;;;;;;;5.02;84.45;98987.31;340235;29;850;-73
2022/01/06 00:25:33;;;;;;;407.13;137.40;;;;;;;5.01;84.57;98983.88;341330;28;1538;-73
2022/01/06 00:25:44;;;;;;;408.47;135.37;;;;;;;4.98;84.86;98983.97;338683;28;1189;-73
2022/01/06 00:25:54;;;;;;;407.47;135.33;;;;;;;4.93;84.84;98980.63;339796;28;1389;-72
2022/01/06 00:26:05;;;;;;;408.65;135.05;;;;;;;4.97;84.89;98984.84;344833;28;1364;-73
2022/01/06 00:26:16;;;;;;;408.58;135.77;;;;;;;4.97;84.89;98982.25;342701;28;857;-70
2022/01/06 00:26:26;;;;;;;410.03;133.90;;;;;;;4.98;85.05;98988.28;337425;28;1475;-73
2022/01/06 00:26:37;;;;;;;409.23;133.50;;;;;;;4.96;84.64;98977.97;337940;29;1020;-73
2022/01/06 00:26:50;;;;;;;409.73;133.80;;;;;;;4.95;85.19;98989.22;341213;28;931;-71
2022/01/06 00:27:01;;;;;;;406.58;134.32;;;;;;;4.95;84.98;98990.97;342283;28;1364;-72
2022/01/06 00:27:11;;;;;;;403.57;134.63;;;;;;;4.96;85.26;98990.94;342724;28;836;-72
2022/01/06 00:27:21;;;;;;;405.67;133.70;;;;;;;4.97;85.06;98987.44;342879;28;928;-72
2022/01/06 00:27:32;;;;;;;408.52;134.75;;;;;;;4.96;85.15;98988.34;338675;28;1447;-72
2022/01/06 00:27:42;;;;;;;411.83;137.57;;;;;;;4.98;85.16;98988.28;339947;28;1426;-72
2022/01/06 00:27:53;;;;;;;407.08;136.25;;;;;;;4.98;85.03;98980.50;341232;28;1349;-72
2022/01/06 00:28:03;;;;;;;403.17;134.80;;;;;;;4.96;85.23;98980.56;342714;28;1509;-72
2022/01/06 00:28:14;;;;;;;405.10;137.10;;;;;;;4.97;85.29;98984.84;343959;28;894;-72
2022/01/06 00:28:24;;;;;;;406.90;136.50;;;;;;;4.99;85.24;98983.06;342591;28;1418;-72
2022/01/06 00:28:35;;;;;;;406.70;134.55;;;;;;;5.01;84.95;98986.47;339953;29;795;-72
2022/01/06 00:28:46;;;;;;;405.17;132.05;;;;;;;5.01;85.50;98981.28;338726;29;1542;-72
2022/01/06 00:28:56;;;;;;;403.63;131.63;;;;;;;5.02;85.17;98982.13;344084;28;1235;-72
2022/01/06 00:29:07;;;;;;;404.90;134.00;;;;;;;5.03;85.21;98983.81;343080;28;1188;-72
2022/01/06 00:29:17;;;;;;;408.60;134.95;;;;;;;4.99;85.20;98980.47;341477;28;1345;-72
2022/01/06 00:29:28;;;;;;;412.42;137.05;;;;;;;5.00;84.71;98984.75;340094;29;1276;-72
2022/01/06 00:29:38;;;;;;;413.17;135.87;;;;;;;4.98;85.11;98981.38;341314;28;1378;-71
2022/01/06 00:29:48;;;;;;;412.52;137.57;;;;;;;5.00;85.01;98989.09;341336;28;803;-72
2022/01/06 00:29:59;;;;;;;408.73;134.70;;;;;;;4.96;85.08;98993.53;338780;29;949;-72
2022/01/06 00:30:09;;;;;;;412.57;136.50;;;;;;;4.95;84.80;98991.81;338831;29;942;-72
2022/01/06 00:30:20;;;;;;;409.33;134.25;;;;;;;4.96;84.99;98988.34;341290;28;1194;-72
2022/01/06 00:30:30;;;;;;;408.95;135.20;;;;;;;4.96;84.91;98985.75;341442;28;949;-72
2022/01/06 00:30:41;;;;;;;404.07;133.57;;;;;;;4.95;84.61;98989.22;338717;28;1173;-72
2022/01/06 00:30:51;;;;;;;404.17;132.38;;;;;;;4.96;84.86;98996.09;338398;29;1810;-72
2022/01/06 00:31:02;;;;;;;407.30;132.13;;;;;;;4.93;84.90;98993.59;337970;29;1935;-72
2022/01/06 00:31:12;;;;;;;408.20;131.88;;;;;;;4.93;84.63;98996.19;339911;28;920;-72
2022/01/06 00:31:22;;;;;;;409.73;133.43;;;;;;;4.94;84.44;98992.72;338687;29;803;-72
2022/01/06 00:31:33;;;;;;;408.67;133.60;;;;;;;4.97;84.67;98999.56;341515;28;849;-72
2022/01/06 00:31:44;;;;;;;408.87;135.07;;;;;;;4.94;84.63;98990.13;342896;28;896;-72
2022/01/06 00:31:54;;;;;;;408.23;136.13;;;;;;;4.94;84.64;98992.72;338493;29;1331;-72
2022/01/06 00:32:05;;;;;;;406.95;137.98;;;;;;;4.91;84.83;98986.75;339881;28;1271;-72
2022/01/06 00:32:15;;;;;;;407.43;136.40;;;;;;;4.90;85.05;98988.50;344111;28;909;-72
2022/01/06 00:32:26;;;;;;;409.17;135.63;;;;;;;4.90;84.93;98985.06;342729;28;868;-72
2022/01/06 00:32:36;;;;;;;408.33;133.17;;;;;;;4.90;84.95;98985.91;341511;28;1076;-72
2022/01/06 00:32:47;;;;;;;408.75;134.82;;;;;;;4.87;84.80;98980.81;337277;29;1293;-72
2022/01/06 00:32:57;;;;;;;409.53;137.27;;;;;;;4.89;84.97;98985.94;337328;29;786;-72
2022/01/06 00:33:07;;;;;;;411.98;138.20;;;;;;;4.85;84.96;98974.81;339909;29;889;-72
2022/01/06 00:33:18;;;;;;;415.23;138.13;;;;;;;4.85;84.82;98979.16;344177;28;872;-72
2022/01/06 00:33:30;;;;;;;414.25;138.52;;;;;;;4.86;85.05;98979.09;340095;28;1714;-72
2022/01/06 00:33:40;;;;;;;414.50;138.52;;;;;;;4.87;85.14;98983.41;338881;29;924;-72
2022/01/06 00:33:51;;;;;;;412.47;138.67;;;;;;;4.87;84.88;98973.03;339944;28;1268;-73
2022/01/06 00:34:01;;;;;;;413.30;138.02;;;;;;;4.91;84.99;98981.56;339944;28;1340;-73
2022/01/06 00:34:11;;;;;;;412.77;138.07;;;;;;;4.90;84.98;98988.50;336427;29;1364;-73
2022/01/06 00:34:23;;;;;;;411.35;137.70;;;;;;;4.88;84.75;98985.09;338664;29;812;-73
2022/01/06 00:34:33;;;;;;;409.33;135.88;;;;;;;4.90;84.76;98983.31;341392;28;867;-73
2022/01/06 00:34:44;;;;;;;410.92;136.25;;;;;;;4.86;85.14;98986.88;341370;28;901;-73
2022/01/06 00:34:54;;;;;;;410.23;135.27;;;;;;;4.86;85.08;98980.84;342596;28;1271;-73
2022/01/06 00:35:05;;;;;;;412.85;135.27;;;;;;;4.87;84.99;98986.00;338915;29;937;-73
2022/01/06 00:35:15;;;;;;;410.17;134.60;;;;;;;4.87;84.96;98992.91;339822;28;1042;-74
2022/01/06 00:35:25;;;;;;;412.58;135.35;;;;;;;4.85;85.33;98981.75;341340;28;1450;-73
2022/01/06 00:35:36;;;;;;;412.77;135.87;;;;;;;4.86;84.96;98986.03;340017;29;1247;-73
2022/01/06 00:35:46;;;;;;;415.70;135.48;;;;;;;4.85;85.05;98985.19;341247;28;1219;-73
2022/01/06 00:35:57;;;;;;;414.57;134.47;;;;;;;4.87;85.19;98993.78;341261;28;1366;-73
2022/01/06 00:36:07;;;;;;;415.02;135.50;;;;;;;4.87;84.83;98987.75;339678;28;1318;-73
2022/01/06 00:36:17;;;;;;;413.43;137.83;;;;;;;4.87;84.83;98991.19;340583;28;1292;-73
2022/01/06 00:36:29;;;;;;;411.40;139.43;;;;;;;4.87;85.06;98983.41;342478;28;1131;-73
2022/01/06 00:36:40;;;;;;;408.80;137.73;;;;;;;4.89;85.08;98991.97;342181;28;1452;-73
2022/01/06 00:36:51;;;;;;;409.20;136.68;;;;;;;4.87;84.86;98988.59;342687;28;1364;-73
2022/01/06 00:37:02;;;;;;;411.33;137.37;;;;;;;4.89;85.00;98994.56;342536;28;1203;-73
2022/01/06 00:37:13;;;;;;;410.55;137.07;;;;;;;4.90;84.90;98988.50;342560;28;876;-73
2022/01/06 00:37:23;;;;;;;409.43;136.37;;;;;;;4.88;85.09;98987.69;342586;28;938;-73
2022/01/06 00:37:33;;;;;;;410.42;137.23;;;;;;;4.88;84.92;98990.28;341893;28;1798;-73
2022/01/06 00:37:44;;;;;;;412.00;138.93;;;;;;;4.88;84.68;98990.28;343896;28;1185;-72
2022/01/06 00:37:54;;;;;;;411.95;139.13;;;;;;;4.88;84.97;98992.03;341303;28;976;-72
2022/01/06 00:38:08;;;;;;;410.30;136.60;;;;;;;4.87;84.87;98988.59;343962;28;1455;-72
2022/01/06 00:38:18;;;;;;;413.15;137.32;;;;;;;4.88;84.95;98985.09;341214;28;1316;-72
2022/01/06 00:38:29;;;;;;;411.90;138.03;;;;;;;4.88;84.99;98984.25;342686;28;1161;-72
2022/01/06 00:38:39;;;;;;;410.80;138.23;;;;;;;4.89;85.39;98981.63;342652;28;1385;-72
2022/01/06 00:38:49;;;;;;;407.67;136.57;;;;;;;4.91;84.74;98984.16;339952;28;1160;-73
2022/01/06 00:39:00;;;;;;;407.58;136.68;;;;;;;4.93;84.87;98984.97;341145;28;1447;-73
2022/01/06 00:39:11;;;;;;;407.23;135.17;;;;;;;4.91;84.79;98982.41;339974;29;1151;-72
2022/01/06 00:39:26;;;;;;;408.30;137.23;;;;;;;4.93;85.06;98985.81;340176;29;869;-72
2022/01/06 00:39:37;;;;;;;409.30;139.07;;;;;;;4.91;85.30;98985.00;342454;28;1304;-73
2022/01/06 00:39:47;;;;;;;410.02;137.82;;;;;;;4.91;84.74;98979.84;341130;28;1338;-73
2022/01/06 00:39:58;;;;;;;409.50;138.90;;;;;;;4.91;85.00;98979.84;341436;28;1358;-72
2022/01/06 00:40:08;;;;;;;411.33;137.90;;;;;;;4.91;84.78;98985.00;340031;29;938;-73
2022/01/06 00:40:19;;;;;;;408.92;136.77;;;;;;;4.90;84.33;98979.88;341208;28;1356;-72
2022/01/06 00:40:29;;;;;;;409.85;136.68;;;;;;;4.89;84.72;98980.75;341333;28;1248;-72
2022/01/06 00:40:39;;;;;;;410.63;138.27;;;;;;;4.88;85.16;98979.06;341368;28;933;-72
2022/01/06 00:40:50;;;;;;;412.90;139.25;;;;;;;4.85;84.94;98980.00;341128;28;1427;-72
2022/01/06 00:41:00;;;;;;;410.03;136.67;;;;;;;4.86;85.23;98981.69;339440;29;1412;-72
2022/01/06 00:41:11;;;;;;;411.83;137.75;;;;;;;4.85;84.97;98974.81;338442;29;1040;-72
2022/01/06 00:41:21;;;;;;;413.07;138.73;;;;;;;4.85;84.90;98980.00;338462;29;895;-73
2022/01/06 00:41:34;;;;;;;415.33;141.37;;;;;;;4.81;85.06;98978.38;337103;29;1261;-72
2022/01/06 00:41:44;;;;;;;413.98;139.57;;;;;;;4.82;84.80;98982.69;339946;28;1300;-72
2022/01/06 00:41:56;;;;;;;411.33;137.80;;;;;;;4.80;84.98;98979.28;339883;29;1279;-72
2022/01/06 00:42:07;;;;;;;409.08;136.50;;;;;;;4.80;85.19;98979.28;339899;28;1283;-73
2022/01/06 00:42:18;;;;;;;411.23;138.32;;;;;;;4.82;85.00;98980.09;345043;28;1837;-72
2022/01/06 00:42:28;;;;;;;412.03;138.70;;;;;;;4.82;84.80;98977.50;341300;28;1016;-72
2022/01/06 00:42:39;;;;;;;411.60;137.35;;;;;;;4.81;85.02;98978.38;341175;28;1141;-72
2022/01/06 00:42:49;;;;;;;411.98;137.15;;;;;;;4.80;85.00;98970.66;341312;28;937;-72
2022/01/06 00:43:02;;;;;;;414.00;135.97;;;;;;;4.81;85.08;98975.78;340014;29;893;-72
2022/01/06 00:43:12;;;;;;;412.13;137.27;;;;;;;4.81;85.21;98973.19;342457;28;1438;-72
2022/01/06 00:43:23;;;;;;;409.80;138.50;;;;;;;4.82;85.00;98972.31;338781;29;953;-72
2022/01/06 00:43:33;;;;;;;405.70;137.90;;;;;;;4.83;85.01;98975.75;341091;28;1269;-73
2022/01/06 00:43:43;;;;;;;408.07;137.13;;;;;;;4.85;84.85;98974.81;341355;28;1058;-73
2022/01/06 00:43:54;;;;;;;408.65;136.85;;;;;;;4.86;84.87;98980.84;340898;28;1054;-72
2022/01/06 00:44:05;;;;;;;408.73;137.10;;;;;;;4.84;84.79;98975.72;338650;29;1164;-72
2022/01/06 00:44:17;;;;;;;411.77;139.23;;;;;;;4.87;84.59;98977.38;344051;28;1574;-72
2022/01/06 00:44:27;;;;;;;414.58;140.32;;;;;;;4.83;84.70;98978.34;344119;28;1404;-72
2022/01/06 00:44:38;;;;;;;413.55;138.75;;;;;;;4.80;84.56;98970.66;341387;28;1248;-72
2022/01/06 00:44:48;;;;;;;412.27;136.80;;;;;;;4.80;84.72;98971.50;339762;29;988;-72
2022/01/06 00:44:58;;;;;;;412.88;136.30;;;;;;;4.79;84.75;98974.97;339975;29;944;-72
2022/01/06 00:45:09;;;;;;;414.77;138.73;;;;;;;4.77;84.83;98976.75;341368;28;1543;-72
2022/01/06 00:45:19;;;;;;;413.17;138.23;;;;;;;4.77;84.87;98971.59;338782;29;772;-72
2022/01/06 00:45:30;;;;;;;411.57;137.57;;;;;;;4.80;85.07;98974.09;343797;28;1357;-72
2022/01/06 00:45:40;;;;;;;411.23;137.27;;;;;;;4.80;84.79;98974.09;342750;28;1321;-72
2022/01/06 00:45:51;;;;;;;414.13;136.90;;;;;;;4.80;84.69;98976.69;338800;29;1901;-72
2022/01/06 00:46:01;;;;;;;413.90;137.00;;;;;;;4.79;84.64;98969.81;340722;28;1570;-72
2022/01/06 00:46:12;;;;;;;415.35;138.85;;;;;;;4.82;84.71;98961.94;338491;29;1205;-73
2022/01/06 00:46:22;;;;;;;414.53;139.07;;;;;;;4.83;84.60;98970.56;339532;28;1280;-72
2022/01/06 00:46:32;;;;;;;414.35;136.85;;;;;;;4.85;84.75;98969.63;337341;29;886;-72
2022/01/06 00:46:43;;;;;;;412.70;136.10;;;;;;;4.82;84.46;98969.72;340113;29;870;-73
2022/01/06 00:46:53;;;;;;;411.90;139.35;;;;;;;4.82;84.46;98969.72;340040;29;937;-72
2022/01/06 00:47:04;;;;;;;412.03;140.10;;;;;;;4.83;84.37;98968.81;339940;29;1174;-72
2022/01/06 00:47:14;;;;;;;412.38;139.07;;;;;;;4.84;84.57;98975.72;338642;29;1227;-72
2022/01/06 00:47:24;;;;;;;413.30;137.33;;;;;;;4.83;84.07;98974.00;338563;29;2028;-72
2022/01/06 00:47:35;;;;;;;415.77;139.23;;;;;;;4.82;84.55;98969.72;342460;28;1362;-72
2022/01/06 00:47:45;;;;;;;414.00;141.05;;;;;;;4.84;84.25;98969.69;342819;28;915;-72
2022/01/06 00:47:56;;;;;;;412.50;140.47;;;;;;;4.83;84.21;98967.97;342568;28;1181;-72
2022/01/06 00:48:07;;;;;;;411.02;138.00;;;;;;;4.83;84.36;98966.22;338514;29;1373;-72
2022/01/06 00:48:17;;;;;;;412.02;135.50;;;;;;;4.81;84.23;98973.19;340011;29;885;-72
2022/01/06 00:48:28;;;;;;;410.80;135.20;;;;;;;4.81;84.11;98968.00;342633;28;1600;-72
2022/01/06 00:48:38;;;;;;;413.60;136.37;;;;;;;4.79;84.43;98964.63;342547;28;1383;-72
2022/01/06 00:48:48;;;;;;;415.90;138.87;;;;;;;4.74;84.40;98970.84;340011;29;774;-72
2022/01/06 00:48:59;;;;;;;415.95;139.18;;;;;;;4.78;84.45;98975.03;341144;28;1351;-72
2022/01/06 00:49:09;;;;;;;414.20;140.37;;;;;;;4.79;84.18;98969.81;340543;28;1936;-72
2022/01/06 00:49:22;;;;;;;412.02;139.32;;;;;;;4.79;84.25;98968.94;339210;28;1747;-73
2022/01/06 00:49:33;;;;;;;412.98;142.13;;;;;;;4.78;84.59;98970.69;340294;29;1385;-72
2022/01/06 00:49:43;;;;;;;414.90;142.00;;;;;;;4.78;84.55;98973.28;340468;28;1515;-72
2022/01/06 00:49:53;;;;;;;416.97;142.13;;;;;;;4.79;84.28;98972.41;343971;28;1207;-73
2022/01/06 00:50:04;;;;;;;415.98;138.77;;;;;;;4.80;84.39;98975.84;341307;28;940;-72
2022/01/06 00:50:15;;;;;;;414.90;138.70;;;;;;;4.80;84.56;98975.84;341397;28;914;-72
2022/01/06 00:50:25;;;;;;;412.90;135.67;;;;;;;4.79;84.16;98969.81;338764;29;906;-72
2022/01/06 00:50:40;;;;;;;414.37;136.77;;;;;;;4.76;84.17;98964.72;340015;29;1269;-73
2022/01/06 00:50:50;;;;;;;415.60;137.57;;;;;;;4.77;84.17;98970.72;341073;28;1389;-72
2022/01/06 00:51:00;;;;;;;416.40;139.03;;;;;;;4.76;84.32;98969.91;341020;28;1891;-73
2022/01/06 00:51:11;;;;;;;413.83;138.63;;;;;;;4.75;84.22;98968.22;342098;28;964;-72
2022/01/06 00:51:21;;;;;;;410.50;138.23;;;;;;;4.79;84.46;98974.97;337078;29;1059;-73
2022/01/06 00:51:32;;;;;;;412.70;139.07;;;;;;;4.80;84.25;98971.50;341151;28;1217;-73
2022/01/06 00:51:43;;;;;;;414.47;139.37;;;;;;;4.79;84.31;98974.97;342555;28;1319;-72
2022/01/06 00:51:53;;;;;;;416.60;139.50;;;;;;;4.80;84.21;98966.31;341266;28;1507;-73
2022/01/06 00:52:04;;;;;;;416.70;138.83;;;;;;;4.78;84.39;98969.84;340061;29;1231;-72
2022/01/06 00:52:14;;;;;;;418.83;138.70;;;;;;;4.78;84.17;98968.09;341362;28;909;-72
2022/01/06 00:52:25;;;;;;;421.27;139.27;;;;;;;4.77;84.07;98966.41;342586;28;1598;-72
2022/01/06 00:52:35;;;;;;;418.00;138.80;;;;;;;4.75;84.35;98963.03;342349;28;1232;-72
2022/01/06 00:52:45;;;;;;;414.60;140.60;;;;;;;4.76;84.37;98969.91;338916;28;1259;-72
2022/01/06 00:52:57;;;;;;;413.98;141.00;;;;;;;4.73;84.57;98967.41;338623;29;1419;-72
2022/01/06 00:53:07;;;;;;;413.48;138.82;;;;;;;4.73;84.57;98964.81;341101;28;1270;-73
2022/01/06 00:53:18;;;;;;;412.55;136.80;;;;;;;4.73;84.63;98964.81;343973;28;891;-72
2022/01/06 00:53:28;;;;;;;411.53;136.70;;;;;;;4.73;84.48;98962.22;341284;28;825;-72
2022/01/06 00:53:39;;;;;;;411.90;137.60;;;;;;;4.75;84.67;98965.63;341461;28;881;-72
2022/01/06 00:53:49;;;;;;;410.53;137.97;;;;;;;4.73;84.65;98967.41;342551;28;1531;-72
2022/01/06 00:54:00;;;;;;;411.17;139.15;;;;;;;4.74;84.68;98963.06;341304;28;1456;-72
2022/01/06 00:54:10;;;;;;;411.53;140.73;;;;;;;4.73;84.49;98964.81;340425;28;1391;-72
2022/01/06 00:54:20;;;;;;;410.42;139.65;;;;;;;4.74;84.51;98961.34;342565;28;869;-72
2022/01/06 00:54:34;;;;;;;411.93;138.20;;;;;;;4.76;84.46;98967.31;342661;28;1176;-72
2022/01/06 00:54:44;;;;;;;412.17;136.98;;;;;;;4.76;84.70;98966.47;340113;29;1072;-72
2022/01/06 00:54:54;;;;;;;411.13;135.33;;;;;;;4.77;84.42;98957.78;340015;29;932;-72
2022/01/06 00:55:05;;;;;;;410.80;135.05;;;;;;;4.74;84.31;98958.75;338596;29;897;-72
2022/01/06 00:55:15;;;;;;;411.33;137.83;;;;;;;4.75;84.40;98959.59;337252;29;1048;-72
2022/01/06 00:55:26;;;;;;;413.52;140.65;;;;;;;4.77;84.72;98965.56;343926;28;1124;-72
2022/01/06 00:55:37;;;;;;;411.00;139.13;;;;;;;4.76;84.60;98953.50;344103;28;892;-72
2022/01/06 00:55:47;;;;;;;411.35;137.23;;;;;;;4.76;84.51;98954.38;339840;28;1193;-72
2022/01/06 00:55:58;;;;;;;411.30;136.82;;;;;;;4.75;84.10;98957.84;341244;28;1299;-72
2022/01/06 00:56:08;;;;;;;414.17;139.03;;;;;;;4.74;84.34;98950.97;339495;28;1214;-72
2022/01/06 00:56:18;;;;;;;414.75;138.73;;;;;;;4.75;83.90;98957.84;339485;28;1370;-72
2022/01/06 00:56:29;;;;;;;412.30;137.60;;;;;;;4.76;84.20;98953.50;342490;28;1625;-72
2022/01/06 00:56:39;;;;;;;410.90;136.87;;;;;;;4.73;84.47;98954.44;343420;28;1561;-72
2022/01/06 00:56:49;;;;;;;410.63;136.40;;;;;;;4.73;84.30;98949.25;342696;28;981;-72
2022/01/06 00:57:00;;;;;;;412.57;137.07;;;;;;;4.74;84.24;98952.72;341198;28;838;-72
2022/01/06 00:57:10;;;;;;;412.80;138.00;;;;;;;4.74;84.08;98955.31;338623;29;939;-72
2022/01/06 00:57:21;;;;;;;414.13;139.20;;;;;;;4.75;84.40;98947.47;338622;28;1254;-72
2022/01/06 00:57:31;;;;;;;414.77;140.52;;;;;;;4.76;84.14;98949.19;342844;28;1186;-73
2022/01/06 00:57:42;;;;;;;415.73;140.13;;;;;;;4.76;84.31;98953.50;339929;29;1042;-73
2022/01/06 00:57:55;;;;;;;414.92;138.20;;;;;;;4.75;84.27;98947.47;341274;28;1063;-73
2022/01/06 00:58:06;;;;;;;414.58;136.75;;;;;;;4.73;84.08;98951.00;339988;28;1362;-72
2022/01/06 00:58:16;;;;;;;412.07;135.87;;;;;;;4.72;84.20;98950.16;342746;28;951;-73
2022/01/06 00:58:26;;;;;;;412.67;134.90;;;;;;;4.72;84.30;98952.75;341138;28;1220;-72
2022/01/06 00:58:37;;;;;;;413.80;137.43;;;;;;;4.74;84.12;98947.53;338722;29;1604;-73
2022/01/06 00:58:48;;;;;;;418.87;139.23;;;;;;;4.73;84.36;98943.22;338599;29;851;-72
2022/01/06 00:58:58;;;;;;;418.02;140.98;;;;;;;4.74;84.44;98945.78;341185;28;1245;-73
2022/01/06 00:59:08;;;;;;;417.00;140.13;;;;;;;4.75;83.93;98944.88;341773;28;1066;-73
2022/01/06 00:59:19;;;;;;;411.80;139.87;;;;;;;4.74;84.35;98945.78;340029;28;1153;-73
2022/01/06 00:59:29;;;;;;;409.55;138.07;;;;;;;4.75;84.31;98947.47;339852;29;894;-74